createdAt,value
2019-05-12T00:01:12.652Z,9.41
2019-05-12T00:03:23.604Z,9.51
2019-05-12T00:05:34.443Z,9.52
2019-05-12T00:07:45.395Z,9.50
2019-05-12T00:09:58.192Z,9.46
2019-05-12T00:12:09.138Z,9.45
2019-05-12T00:14:19.975Z,9.46
2019-05-12T00:16:30.836Z,9.48
2019-05-12T00:18:41.725Z,9.47
2019-05-12T00:20:52.602Z,9.45
2019-05-12T00:23:22.404Z,9.41
2019-05-12T00:25:18.445Z,9.40
2019-05-12T00:27:29.410Z,9.43
2019-05-12T00:29:40.572Z,9.46
2019-05-12T00:31:51.544Z,9.44
2019-05-12T00:34:02.839Z,9.43
2019-05-12T00:36:13.680Z,9.43
2019-05-12T00:38:24.556Z,9.45
2019-05-12T00:40:38.828Z,9.40
2019-05-12T00:42:48.751Z,9.40
2019-05-12T00:44:59.620Z,9.41
2019-05-12T00:47:10.565Z,9.35
2019-05-12T00:49:21.431Z,9.40
2019-05-12T00:51:32.385Z,9.36
2019-05-12T00:53:43.561Z,9.35
2019-05-12T00:55:54.397Z,9.33
2019-05-12T00:58:08.161Z,9.27
2019-05-12T01:00:19.135Z,9.27
2019-05-12T01:02:30.022Z,9.28
2019-05-12T01:04:40.897Z,9.27
2019-05-12T01:06:52.127Z,9.25
2019-05-12T01:09:04.924Z,9.26
2019-05-12T01:11:17.814Z,9.24
2019-05-12T01:13:28.727Z,9.29
2019-05-12T01:15:39.703Z,9.28
2019-05-12T01:17:50.665Z,9.28
2019-05-12T01:20:02.839Z,9.29
2019-05-12T01:22:13.670Z,9.23
2019-05-12T01:24:24.562Z,9.31
2019-05-12T01:26:35.421Z,9.31
2019-05-12T01:28:48.308Z,9.30
2019-05-12T01:31:00.956Z,9.24
2019-05-12T01:33:11.942Z,9.23
2019-05-12T01:35:22.816Z,9.28
2019-05-12T01:37:33.680Z,9.27
2019-05-12T01:39:44.521Z,9.24
2019-05-12T01:41:55.385Z,9.25
2019-05-12T01:44:08.612Z,9.26
2019-05-12T01:46:19.088Z,9.28
2019-05-12T01:48:29.923Z,9.29
2019-05-12T01:50:40.789Z,9.27
2019-05-12T01:52:51.770Z,9.29
2019-05-12T01:55:05.113Z,9.30
2019-05-12T01:57:18.648Z,9.35
2019-05-12T01:59:28.934Z,9.41
2019-05-12T02:01:39.792Z,9.42
2019-05-12T02:03:50.640Z,9.31
2019-05-12T02:06:02.703Z,9.33
2019-05-12T02:08:21.269Z,9.35
2019-05-12T02:10:32.213Z,9.46
2019-05-12T02:12:43.207Z,9.46
2019-05-12T02:14:54.155Z,9.42
2019-05-12T02:17:05.146Z,9.43
2019-05-12T02:19:17.808Z,9.45
2019-05-12T02:21:28.744Z,9.44
2019-05-12T02:23:39.687Z,9.47
2019-05-12T02:25:51.307Z,9.47
2019-05-12T02:28:02.350Z,9.51
2019-05-12T02:30:14.394Z,9.54
2019-05-12T02:32:35.546Z,9.57
2019-05-12T02:34:38.129Z,9.55
2019-05-12T02:36:49.059Z,9.49
2019-05-12T02:38:59.903Z,9.55
2019-05-12T02:41:10.848Z,9.52
2019-05-12T02:43:24.386Z,9.47
2019-05-12T02:45:35.555Z,9.42
2019-05-12T02:47:47.076Z,9.39
2019-05-12T02:49:58.022Z,9.39
2019-05-12T02:52:09.138Z,9.34
2019-05-12T02:54:20.091Z,9.34
2019-05-12T02:56:35.216Z,9.30
2019-05-12T02:58:45.409Z,9.32
2019-05-12T03:00:56.764Z,9.36
2019-05-12T03:03:07.944Z,9.35
2019-05-12T03:05:18.876Z,9.34
2019-05-12T03:07:30.864Z,9.33
2019-05-12T03:09:44.569Z,9.30
2019-05-12T03:11:55.687Z,9.30
2019-05-12T03:14:06.696Z,9.29
2019-05-12T03:16:17.531Z,9.30
2019-05-12T03:18:28.399Z,9.30
2019-05-12T03:20:39.251Z,9.30
2019-05-12T03:22:50.108Z,9.29
2019-05-12T03:25:11.335Z,9.28
2019-05-12T03:27:14.584Z,9.35
2019-05-12T03:29:26.580Z,9.31
2019-05-12T03:31:40.742Z,9.29
2019-05-12T03:33:54.130Z,9.23
2019-05-12T03:36:08.506Z,9.24
2019-05-12T03:38:15.803Z,9.14
2019-05-12T03:40:26.659Z,9.14
2019-05-12T03:42:37.502Z,9.15
2019-05-12T03:44:48.355Z,9.09
2019-05-12T03:46:59.310Z,9.09
2019-05-12T03:49:10.168Z,9.05
2019-05-12T03:51:24.824Z,8.98
2019-05-12T03:53:35.276Z,8.96
2019-05-12T03:55:47.319Z,9.02
2019-05-12T03:57:58.436Z,9.02
2019-05-12T04:00:09.691Z,8.92
2019-05-12T04:02:20.569Z,8.90
2019-05-12T04:04:34.522Z,8.91
2019-05-12T04:06:45.316Z,8.85
2019-05-12T04:08:59.876Z,8.76
2019-05-12T04:11:09.250Z,8.81
2019-05-12T04:13:20.062Z,8.84
2019-05-12T04:15:31.045Z,8.80
2019-05-12T04:17:45.167Z,8.83
2019-05-12T04:19:56.391Z,8.78
2019-05-12T04:22:07.217Z,8.73
2019-05-12T04:24:18.062Z,8.73
2019-05-12T04:26:28.992Z,8.66
2019-05-12T04:28:39.841Z,8.67
2019-05-12T04:30:50.723Z,8.64
2019-05-12T04:33:04.435Z,8.64
2019-05-12T04:35:15.049Z,8.71
2019-05-12T04:37:26.043Z,8.65
2019-05-12T04:39:36.869Z,8.61
2019-05-12T04:41:47.752Z,8.62
2019-05-12T04:43:58.594Z,8.63
2019-05-12T04:46:09.474Z,8.65
2019-05-12T04:48:21.580Z,8.70
2019-05-12T04:50:35.317Z,8.69
2019-05-12T04:52:45.536Z,8.68
2019-05-12T04:54:56.476Z,8.62
2019-05-12T04:57:07.328Z,8.65
2019-05-12T04:59:18.167Z,8.66
2019-05-12T05:01:29.044Z,8.67
2019-05-12T05:03:40.005Z,8.61
2019-05-12T05:05:50.857Z,8.67
2019-05-12T05:08:04.367Z,8.66
2019-05-12T05:10:14.841Z,8.65
2019-05-12T05:12:25.841Z,8.67
2019-05-12T05:14:36.690Z,8.71
2019-05-12T05:16:47.559Z,8.63
2019-05-12T05:18:58.507Z,8.68
2019-05-12T05:21:09.359Z,8.71
2019-05-12T05:23:20.221Z,8.74
2019-05-12T05:25:34.062Z,8.78
2019-05-12T05:27:45.115Z,8.82
2019-05-12T05:29:56.051Z,8.82
2019-05-12T05:32:06.932Z,8.79
2019-05-12T05:34:17.777Z,8.77
2019-05-12T05:36:28.610Z,8.76
2019-05-12T05:38:39.477Z,8.69
2019-05-12T05:40:50.353Z,8.72
2019-05-12T05:43:03.560Z,8.68
2019-05-12T05:45:19.507Z,8.71
2019-05-12T05:47:28.555Z,8.73
2019-05-12T05:49:39.681Z,8.76
2019-05-12T05:51:55.108Z,8.75
2019-05-12T05:54:04.090Z,8.76
2019-05-12T05:56:18.204Z,8.78
2019-05-12T05:58:27.815Z,8.83
2019-05-12T06:00:39.585Z,8.79
2019-05-12T06:02:50.613Z,8.84
2019-05-12T06:05:04.226Z,8.76
2019-05-12T06:07:14.462Z,8.81
2019-05-12T06:09:25.368Z,8.82
2019-05-12T06:11:36.209Z,8.85
2019-05-12T06:13:47.260Z,8.85
2019-05-12T06:15:58.107Z,8.88
2019-05-12T06:18:08.963Z,8.89
2019-05-12T06:20:20.020Z,8.94
2019-05-12T06:22:30.884Z,8.96
2019-05-12T06:24:44.018Z,8.98
2019-05-12T06:27:00.218Z,8.96
2019-05-12T06:29:11.272Z,8.97
2019-05-12T06:31:25.218Z,8.96
2019-05-12T06:33:36.257Z,8.97
2019-05-12T06:35:46.056Z,9.02
2019-05-12T06:38:01.056Z,9.03
2019-05-12T06:40:09.786Z,8.95
2019-05-12T06:42:20.737Z,9.08
2019-05-12T06:44:33.486Z,9.06
2019-05-12T06:46:44.622Z,9.10
2019-05-12T06:49:00.263Z,9.13
2019-05-12T06:51:09.144Z,9.39
2019-05-12T06:53:28.415Z,9.68
2019-05-12T06:55:38.862Z,10.06
2019-05-12T06:57:50.117Z,10.28
2019-05-12T06:59:59.448Z,10.59
2019-05-12T07:02:10.418Z,10.90
2019-05-12T07:07:00.713Z,11.90
2019-05-12T07:09:16.464Z,12.78
2019-05-12T07:11:24.568Z,12.91
2019-05-12T07:13:35.572Z,12.53
2019-05-12T07:15:46.466Z,12.21
2019-05-12T07:17:59.192Z,11.87
2019-05-12T07:20:10.428Z,11.85
2019-05-12T07:22:23.394Z,11.94
2019-05-12T07:24:34.253Z,11.87
2019-05-12T07:26:47.961Z,11.65
2019-05-12T07:28:57.942Z,11.81
2019-05-12T07:31:08.888Z,12.00
2019-05-12T07:33:19.723Z,12.53
2019-05-12T07:35:33.697Z,12.94
2019-05-12T07:37:45.355Z,12.98
2019-05-12T07:39:56.233Z,12.86
2019-05-12T07:42:07.289Z,12.62
2019-05-12T07:44:22.223Z,12.48
2019-05-12T07:46:34.257Z,12.72
2019-05-12T07:48:50.712Z,13.07
2019-05-12T07:51:00.604Z,13.10
2019-05-12T07:53:10.918Z,12.89
2019-05-12T07:55:23.680Z,12.57
2019-05-12T07:57:40.804Z,12.54
2019-05-12T07:59:47.297Z,12.28
2019-05-12T08:01:58.306Z,12.22
2019-05-12T08:04:09.139Z,12.11
2019-05-12T08:06:20.121Z,12.24
2019-05-12T08:08:30.984Z,12.41
2019-05-12T08:10:44.145Z,12.50
2019-05-12T08:12:58.947Z,12.43
2019-05-12T08:15:09.831Z,12.33
2019-05-12T08:17:20.877Z,12.17
2019-05-12T08:19:33.778Z,12.31
2019-05-12T08:21:49.164Z,12.37
2019-05-12T08:23:57.415Z,12.48
2019-05-12T08:26:12.051Z,12.96
2019-05-12T08:28:27.954Z,13.50
2019-05-12T08:30:40.363Z,13.92
2019-05-12T08:32:48.179Z,14.24
2019-05-12T08:34:59.132Z,14.47
2019-05-12T08:37:10.012Z,14.54
2019-05-12T08:39:23.620Z,14.79
2019-05-12T08:41:34.280Z,14.51
2019-05-12T08:43:48.818Z,14.65
2019-05-12T08:46:00.291Z,14.82
2019-05-12T08:48:17.060Z,15.06
2019-05-12T08:50:31.515Z,15.46
2019-05-12T08:52:41.355Z,16.10
2019-05-12T08:54:49.550Z,16.70
2019-05-12T08:57:01.271Z,16.97
2019-05-12T08:59:15.574Z,16.50
2019-05-12T09:01:30.463Z,16.37
2019-05-12T09:03:38.382Z,16.10
2019-05-12T09:05:49.552Z,15.92
2019-05-12T09:08:00.645Z,15.59
2019-05-12T09:10:14.310Z,15.07
2019-05-12T09:12:25.323Z,14.68
2019-05-12T09:14:41.303Z,14.39
2019-05-12T09:16:55.956Z,14.22
2019-05-12T09:19:04.646Z,14.00
2019-05-12T09:21:15.150Z,14.10
2019-05-12T09:23:26.009Z,14.00
2019-05-12T09:25:39.270Z,13.71
2019-05-12T09:27:49.758Z,13.68
2019-05-12T09:30:08.299Z,13.99
2019-05-12T09:32:14.524Z,14.46
2019-05-12T09:34:25.690Z,14.75
2019-05-12T09:36:38.497Z,14.58
2019-05-12T09:38:55.852Z,14.36
2019-05-12T09:41:03.256Z,14.22
2019-05-12T09:43:14.996Z,13.83
2019-05-12T09:45:26.483Z,13.69
2019-05-12T09:47:37.359Z,13.54
2019-05-12T09:49:48.222Z,13.41
2019-05-12T09:51:59.096Z,13.33
2019-05-12T09:54:09.944Z,13.28
2019-05-12T09:56:20.921Z,12.97
2019-05-12T09:58:33.640Z,12.86
2019-05-12T10:00:44.753Z,12.68
2019-05-12T10:02:59.022Z,12.66
2019-05-12T10:05:08.684Z,12.67
2019-05-12T10:07:19.587Z,12.72
2019-05-12T10:09:30.451Z,12.75
2019-05-12T10:11:41.338Z,12.85
2019-05-12T10:13:54.202Z,12.81
2019-05-12T10:16:08.800Z,12.78
2019-05-12T10:18:17.937Z,12.82
2019-05-12T10:20:29.074Z,12.88
2019-05-12T10:22:43.823Z,12.92
2019-05-12T10:24:57.847Z,12.83
2019-05-12T10:27:07.154Z,12.78
2019-05-12T10:29:20.785Z,12.72
2019-05-12T10:31:35.592Z,12.81
2019-05-12T10:33:43.545Z,12.73
2019-05-12T10:35:54.422Z,12.65
2019-05-12T10:38:09.169Z,12.72
2019-05-12T10:40:18.531Z,13.01
2019-05-12T10:42:29.396Z,13.01
2019-05-12T10:44:40.980Z,12.90
2019-05-12T10:46:53.936Z,12.87
2019-05-12T10:49:04.862Z,12.87
2019-05-12T10:51:15.747Z,12.88
2019-05-12T10:53:26.596Z,12.80
2019-05-12T10:55:37.494Z,12.73
2019-05-12T10:57:52.939Z,12.71
2019-05-12T11:00:04.203Z,12.58
2019-05-12T11:02:15.011Z,12.51
2019-05-12T11:04:35.563Z,12.48
2019-05-12T11:06:39.617Z,12.36
2019-05-12T11:08:51.527Z,12.39
2019-05-12T11:11:04.175Z,12.51
2019-05-12T11:13:18.052Z,13.01
2019-05-12T11:15:28.195Z,13.61
2019-05-12T11:17:53.508Z,13.94
2019-05-12T11:20:04.526Z,14.16
2019-05-12T11:22:15.410Z,14.23
2019-05-12T11:24:26.267Z,14.16
2019-05-12T11:26:37.219Z,14.39
2019-05-12T11:28:48.093Z,14.57
2019-05-12T11:30:59.151Z,14.65
2019-05-12T11:33:10.027Z,14.78
2019-05-12T11:35:20.957Z,14.71
2019-05-12T11:37:33.814Z,14.52
2019-05-12T11:39:47.524Z,14.34
2019-05-12T11:41:57.614Z,14.25
2019-05-12T11:44:08.482Z,14.01
2019-05-12T11:46:19.418Z,13.82
2019-05-12T11:48:30.413Z,13.77
2019-05-12T11:50:47.798Z,13.80
2019-05-12T11:52:54.384Z,13.81
2019-05-12T11:55:05.696Z,13.81
2019-05-12T11:57:20.078Z,14.07
2019-05-12T11:59:31.333Z,14.54
2019-05-12T12:01:45.611Z,15.03
2019-05-12T12:03:55.708Z,15.70
2019-05-12T12:06:06.558Z,16.11
2019-05-12T12:08:17.450Z,16.18
2019-05-12T12:10:29.269Z,16.28
2019-05-12T12:12:45.324Z,15.98
2019-05-12T12:14:54.099Z,15.85
2019-05-12T12:17:05.192Z,15.76
2019-05-12T12:19:16.061Z,15.59
2019-05-12T12:21:26.910Z,15.33
2019-05-12T12:23:40.913Z,15.11
2019-05-12T12:25:50.621Z,14.90
2019-05-12T12:28:01.566Z,14.88
2019-05-12T12:30:19.254Z,15.16
2019-05-12T12:32:27.619Z,15.42
2019-05-12T12:34:38.606Z,15.68
2019-05-12T12:36:49.564Z,15.87
2019-05-12T12:39:00.427Z,15.87
2019-05-12T12:41:13.204Z,15.81
2019-05-12T12:43:24.797Z,15.67
2019-05-12T12:45:50.025Z,15.52
2019-05-12T12:48:00.991Z,15.41
2019-05-12T12:50:13.316Z,15.29
2019-05-12T12:52:24.473Z,15.17
2019-05-12T12:54:35.346Z,15.05
2019-05-12T12:56:46.238Z,14.94
2019-05-12T12:59:04.140Z,14.94
2019-05-12T13:01:14.123Z,14.93
2019-05-12T13:03:25.745Z,14.79
2019-05-12T13:05:35.520Z,14.96
2019-05-12T13:07:46.394Z,15.21
2019-05-12T13:10:07.408Z,15.44
2019-05-12T13:12:15.862Z,15.48
2019-05-12T13:14:23.406Z,15.35
2019-05-12T13:16:35.619Z,15.29
2019-05-12T13:18:46.523Z,15.35
2019-05-12T13:20:58.144Z,15.51
2019-05-12T13:23:09.170Z,15.68
2019-05-12T13:25:20.073Z,15.84
2019-05-12T13:27:34.124Z,15.97
2019-05-12T13:29:43.698Z,16.12
2019-05-12T13:31:54.633Z,16.04
2019-05-12T13:34:05.619Z,15.84
2019-05-12T13:36:16.585Z,15.67
2019-05-12T13:38:30.478Z,15.67
2019-05-12T13:40:40.217Z,15.58
2019-05-12T13:42:51.292Z,15.50
2019-05-12T13:45:04.258Z,15.53
2019-05-12T13:47:15.134Z,15.48
2019-05-12T13:49:30.091Z,15.30
2019-05-12T13:51:43.114Z,15.29
2019-05-12T13:53:51.683Z,15.25
2019-05-12T13:56:04.699Z,15.16
2019-05-12T13:58:15.729Z,15.18
2019-05-12T14:00:26.677Z,15.32
2019-05-12T14:02:37.575Z,15.51
2019-05-12T14:04:48.530Z,15.67
2019-05-12T14:06:59.501Z,15.82
2019-05-12T14:09:10.368Z,15.85
2019-05-12T14:11:23.655Z,15.79
2019-05-12T14:13:34.028Z,15.63
2019-05-12T14:15:44.928Z,15.60
2019-05-12T14:17:55.773Z,15.61
2019-05-12T14:20:09.257Z,15.64
2019-05-12T14:22:24.441Z,15.69
2019-05-12T14:24:41.745Z,15.76
2019-05-12T14:26:49.273Z,15.78
2019-05-12T14:28:58.191Z,15.86
2019-05-12T14:31:09.141Z,15.77
2019-05-12T14:33:20.003Z,15.67
2019-05-12T14:35:32.610Z,15.57
2019-05-12T14:37:45.935Z,15.55
2019-05-12T14:39:58.633Z,15.63
2019-05-12T14:42:09.471Z,15.56
2019-05-12T14:44:20.347Z,15.53
2019-05-12T14:46:33.313Z,15.59
2019-05-12T14:48:46.448Z,15.64
2019-05-12T14:50:56.926Z,15.69
2019-05-12T14:53:07.776Z,15.70
2019-05-12T14:55:18.623Z,15.74
2019-05-12T14:57:34.637Z,15.75
2019-05-12T14:59:42.292Z,15.72
2019-05-12T15:01:59.082Z,15.69
2019-05-12T15:04:05.913Z,15.62
2019-05-12T15:06:19.425Z,15.38
2019-05-12T15:08:36.292Z,15.35
2019-05-12T15:10:42.519Z,15.28
2019-05-12T15:12:54.397Z,15.27
2019-05-12T15:15:09.199Z,15.24
2019-05-12T15:17:22.447Z,15.26
2019-05-12T15:19:33.426Z,15.30
2019-05-12T15:21:44.449Z,15.33
2019-05-12T15:23:55.304Z,15.33
2019-05-12T15:26:09.618Z,15.28
2019-05-12T15:28:18.930Z,15.20
2019-05-12T15:30:29.905Z,15.06
2019-05-12T15:32:40.765Z,14.95
2019-05-12T15:34:51.605Z,14.87
2019-05-12T15:37:04.161Z,14.97
2019-05-12T15:39:15.286Z,15.29
2019-05-12T15:41:26.169Z,15.55
2019-05-12T15:43:44.209Z,15.59
2019-05-12T15:45:55.302Z,15.49
2019-05-12T15:48:04.050Z,15.43
2019-05-12T15:50:15.436Z,15.39
2019-05-12T15:52:29.965Z,15.38
2019-05-12T15:54:45.819Z,15.30
2019-05-12T15:56:55.736Z,15.33
2019-05-12T15:59:06.659Z,15.35
2019-05-12T16:01:17.527Z,15.36
2019-05-12T16:03:28.371Z,15.34
2019-05-12T16:05:39.242Z,15.34
2019-05-12T16:07:50.127Z,15.22
2019-05-12T16:10:01.070Z,15.13
2019-05-12T16:12:19.997Z,15.00
2019-05-12T16:14:24.784Z,14.89
2019-05-12T16:16:42.501Z,14.80
2019-05-12T16:18:50.683Z,14.74
2019-05-12T16:21:05.101Z,14.69
2019-05-12T16:23:25.104Z,14.76
2019-05-12T16:25:30.641Z,14.77
2019-05-12T16:27:44.292Z,14.76
2019-05-12T16:29:54.572Z,14.79
2019-05-12T16:32:05.655Z,14.84
2019-05-12T16:34:16.507Z,14.80
2019-05-12T16:36:27.491Z,14.79
2019-05-12T16:38:38.571Z,14.71
2019-05-12T16:40:49.994Z,14.67
2019-05-12T16:43:00.901Z,14.64
2019-05-12T16:45:14.304Z,14.69
2019-05-12T16:47:29.044Z,14.79
2019-05-12T16:49:37.936Z,14.85
2019-05-12T16:51:48.795Z,14.91
2019-05-12T16:53:59.838Z,14.93
2019-05-12T16:56:10.823Z,14.81
2019-05-12T16:58:24.510Z,14.69
2019-05-12T17:00:39.571Z,14.60
2019-05-12T17:02:55.194Z,14.55
2019-05-12T17:05:00.309Z,14.47
2019-05-12T17:07:17.342Z,14.44
2019-05-12T17:09:24.131Z,14.42
2019-05-12T17:11:37.217Z,14.41
2019-05-12T17:13:56.816Z,14.34
2019-05-12T17:16:00.689Z,14.28
2019-05-12T17:18:13.605Z,14.23
2019-05-12T17:20:24.328Z,14.14
2019-05-12T17:22:35.182Z,14.13
2019-05-12T17:24:46.081Z,14.05
2019-05-12T17:26:56.925Z,13.96
2019-05-12T17:29:08.043Z,13.87
2019-05-12T17:31:19.050Z,13.87
2019-05-12T17:33:30.047Z,13.85
2019-05-12T17:35:41.067Z,13.82
2019-05-12T17:37:53.550Z,13.79
2019-05-12T17:40:09.337Z,13.72
2019-05-12T17:42:21.504Z,13.73
2019-05-12T17:44:31.286Z,13.71
2019-05-12T17:46:44.232Z,13.70
2019-05-12T17:48:55.154Z,13.70
2019-05-12T17:51:06.120Z,13.67
2019-05-12T17:53:17.884Z,13.65
2019-05-12T17:55:28.802Z,13.65
2019-05-12T17:57:39.789Z,13.69
2019-05-12T17:59:50.838Z,13.67
2019-05-12T18:02:05.775Z,13.69
2019-05-12T18:04:14.689Z,13.70
2019-05-12T18:06:29.560Z,13.68
2019-05-12T18:08:38.847Z,13.65
2019-05-12T18:10:49.988Z,13.66
2019-05-12T18:13:00.975Z,13.70
2019-05-12T18:15:14.692Z,13.68
2019-05-12T18:17:24.993Z,13.65
2019-05-12T18:19:35.865Z,13.64
2019-05-12T18:21:47.014Z,13.57
2019-05-12T18:24:00.478Z,13.54
2019-05-12T18:26:12.342Z,13.46
2019-05-12T18:28:27.546Z,13.43
2019-05-12T18:30:36.461Z,13.35
2019-05-12T18:32:47.364Z,13.30
2019-05-12T18:34:58.318Z,13.27
2019-05-12T18:37:09.269Z,13.21
2019-05-12T18:39:20.122Z,13.12
2019-05-12T18:41:33.537Z,13.05
2019-05-12T18:43:43.863Z,13.04
2019-05-12T18:45:58.872Z,12.98
2019-05-12T18:48:16.778Z,12.91
2019-05-12T18:50:26.321Z,12.86
2019-05-12T18:52:39.279Z,12.84
2019-05-12T18:54:52.084Z,12.74
2019-05-12T18:57:04.861Z,12.69
2019-05-12T18:59:16.071Z,12.67
2019-05-12T19:01:24.824Z,12.65
2019-05-12T19:03:47.129Z,12.64
2019-05-12T19:05:48.498Z,12.66
2019-05-12T19:07:59.380Z,12.64
2019-05-12T19:10:10.454Z,12.60
2019-05-12T19:12:31.132Z,12.58
2019-05-12T19:14:37.088Z,12.55
2019-05-12T19:16:47.312Z,12.49
2019-05-12T19:18:58.168Z,12.44
2019-05-12T19:21:10.218Z,12.35
2019-05-12T19:23:26.849Z,12.31
2019-05-12T19:25:38.718Z,12.26
2019-05-12T19:27:54.977Z,12.22
2019-05-12T19:30:00.453Z,12.24
2019-05-12T19:32:11.326Z,12.20
2019-05-12T19:34:25.795Z,12.18
2019-05-12T19:36:38.126Z,12.16
2019-05-12T19:38:47.779Z,12.17
2019-05-12T19:41:00.797Z,12.17
2019-05-12T19:43:11.487Z,12.11
2019-05-12T19:45:24.943Z,12.07
2019-05-12T19:47:38.346Z,12.04
2019-05-12T19:49:50.637Z,12.04
2019-05-12T19:52:03.428Z,12.02
2019-05-12T19:54:14.086Z,12.02
2019-05-12T19:56:34.649Z,12.01
2019-05-12T19:58:37.945Z,11.98
2019-05-12T20:00:48.901Z,11.91
2019-05-12T20:02:59.781Z,11.88
2019-05-12T20:05:14.287Z,11.81
2019-05-12T20:07:23.815Z,11.75
2019-05-12T20:09:34.800Z,11.71
2019-05-12T20:11:45.658Z,11.66
2019-05-12T20:13:56.536Z,11.62
2019-05-12T20:16:11.529Z,11.57
2019-05-12T20:18:20.372Z,11.53
2019-05-12T20:20:36.709Z,11.48
2019-05-12T20:22:44.281Z,11.44
2019-05-12T20:24:55.152Z,11.40
2019-05-12T20:27:10.528Z,11.35
2019-05-12T20:29:24.557Z,11.31
2019-05-12T20:31:35.518Z,11.25
2019-05-12T20:33:44.792Z,11.20
2019-05-12T20:35:55.747Z,11.13
2019-05-12T20:38:06.597Z,11.06
2019-05-12T20:40:17.678Z,10.87
2019-05-12T20:42:33.991Z,10.64
2019-05-12T20:44:43.613Z,10.29
2019-05-12T20:46:56.252Z,9.96
2019-05-12T20:49:11.877Z,9.77
2019-05-12T20:51:20.339Z,9.60
2019-05-12T20:53:33.663Z,9.50
2019-05-12T20:55:44.377Z,9.46
2019-05-12T20:57:56.917Z,9.39
2019-05-12T21:00:08.748Z,9.29
2019-05-12T21:02:19.640Z,9.22
2019-05-12T21:04:33.338Z,9.10
2019-05-12T21:06:43.337Z,9.06
2019-05-12T21:08:56.438Z,8.97
2019-05-12T21:11:06.951Z,8.81
2019-05-12T21:13:20.352Z,8.65
2019-05-12T21:15:37.174Z,8.59
2019-05-12T21:17:46.831Z,8.52
2019-05-12T21:19:59.400Z,8.43
2019-05-12T21:22:08.971Z,8.38
2019-05-12T21:24:19.829Z,8.32
2019-05-12T21:26:34.716Z,8.27
2019-05-12T21:28:48.086Z,8.21
2019-05-12T21:30:56.269Z,8.16
2019-05-12T21:33:07.336Z,8.08
2019-05-12T21:35:22.501Z,8.06
2019-05-12T21:37:30.946Z,7.99
2019-05-12T21:39:46.816Z,8.00
2019-05-12T21:41:55.004Z,7.95
2019-05-12T21:44:10.970Z,7.86
2019-05-12T21:46:19.064Z,7.77
2019-05-12T21:48:29.893Z,7.70
2019-05-12T21:50:40.964Z,7.64
2019-05-12T21:52:56.509Z,7.61
2019-05-12T21:55:06.396Z,7.55
2019-05-12T21:57:19.269Z,7.49
2019-05-12T21:59:37.745Z,7.39
2019-05-12T22:01:45.839Z,7.37
2019-05-12T22:04:02.033Z,7.37
2019-05-12T22:06:16.713Z,7.33
2019-05-12T22:08:25.405Z,7.32
2019-05-12T22:10:38.349Z,7.24
2019-05-12T22:12:49.217Z,7.18
2019-05-12T22:15:00.096Z,7.11
2019-05-12T22:17:13.513Z,7.10
2019-05-12T22:19:23.846Z,7.10
2019-05-12T22:21:35.806Z,7.06
2019-05-12T22:23:51.130Z,6.98
2019-05-12T22:26:00.537Z,6.88
2019-05-12T22:28:13.477Z,6.85
2019-05-12T22:30:25.244Z,6.82
2019-05-12T22:32:36.166Z,6.88
2019-05-12T22:34:47.020Z,6.85
2019-05-12T22:36:59.200Z,6.88
2019-05-12T22:39:10.446Z,6.85
2019-05-12T22:41:21.285Z,6.79
2019-05-12T22:43:41.090Z,6.76
2019-05-12T22:45:49.210Z,6.69
2019-05-12T22:47:59.218Z,6.64
2019-05-12T22:50:10.460Z,6.58
2019-05-12T22:52:23.419Z,6.57
2019-05-12T22:54:34.118Z,6.53
2019-05-12T22:56:49.494Z,6.59
2019-05-12T22:58:59.987Z,6.61
2019-05-12T23:01:14.479Z,6.56
2019-05-12T23:03:25.345Z,6.57
2019-05-12T23:05:36.178Z,6.50
2019-05-12T23:07:47.115Z,6.44
2019-05-12T23:10:00.470Z,6.37
2019-05-12T23:12:18.132Z,6.27
2019-05-12T23:14:25.078Z,6.26
2019-05-12T23:16:36.152Z,6.27
2019-05-12T23:18:47.095Z,6.32
2019-05-12T23:20:57.951Z,6.31
2019-05-12T23:23:13.883Z,6.30
2019-05-12T23:25:21.797Z,6.30
2019-05-12T23:27:33.473Z,6.26
2019-05-12T23:29:44.517Z,6.27
2019-05-12T23:32:00.589Z,6.26
2019-05-12T23:34:12.394Z,6.19
2019-05-12T23:36:35.001Z,6.12
2019-05-12T23:38:34.030Z,6.11
2019-05-12T23:40:45.017Z,6.11
2019-05-12T23:42:55.860Z,6.11
2019-05-12T23:45:08.618Z,6.10
2019-05-12T23:47:19.452Z,6.08
2019-05-12T23:49:30.301Z,6.10
2019-05-12T23:51:41.180Z,6.12
2019-05-12T23:53:52.064Z,6.19
2019-05-12T23:56:03.728Z,6.28
2019-05-12T23:58:14.898Z,6.34
